Time;durP1;ratioP1;P1;durP2;ratioP2;P2;SDS_P1;SDS_P2;PMS_P1;PMS_P2;Temp;Humidity;BMP_temperature;BMP_pressure;BME280_temperature;BME280_humidity;BME280_pressure;Samples;Min_cycle;Max_cycle;Signal;HPM_P1;HPM_P2
2023/11/24 00:01:19;;;;;;;0.30;0.30;;;;;;;;;;5017713;28;20045;-66
2023/11/24 00:03:45;;;;;;;0.50;0.50;;;;;;;;;;5022393;28;20041;-64
2023/11/24 00:06:12;;;;;;;7.77;0.77;;;;;;;;;;5015345;28;20481;-64
2023/11/24 00:08:37;;;;;;;0.20;0.20;;;;;;;;;;5016678;28;20026;-64
2023/11/24 00:11:03;;;;;;;0.20;0.20;;;;;;;;;;5016427;28;20026;-62
2023/11/24 00:13:28;;;;;;;0.30;0.30;;;;;;;;;;5015481;28;20034;-64
2023/11/24 00:15:54;;;;;;;0.20;0.20;;;;;;;;;;5017750;28;20392;-64
2023/11/24 00:18:21;;;;;;;2.83;1.23;;;;;;;;;;5013048;28;20021;-64
2023/11/24 00:20:47;;;;;;;0.30;0.30;;;;;;;;;;5015688;28;20026;-66
2023/11/24 00:23:12;;;;;;;0.47;0.47;;;;;;;;;;5016370;28;20521;-67
2023/11/24 00:25:37;;;;;;;0.23;0.23;;;;;;;;;;5014416;28;20037;-66
2023/11/24 00:28:04;;;;;;;0.30;0.30;;;;;;;;;;5016672;28;20433;-63
2023/11/24 00:30:29;;;;;;;1.10;1.00;;;;;;;;;;5023573;28;20018;-62
2023/11/24 00:32:54;;;;;;;0.50;0.50;;;;;;;;;;5019391;28;20017;-64
2023/11/24 00:35:20;;;;;;;14.73;1.33;;;;;;;;;;5016331;28;20026;-64
2023/11/24 00:37:46;;;;;;;3.50;0.60;;;;;;;;;;5017589;28;20017;-63
2023/11/24 00:40:13;;;;;;;0.20;0.20;;;;;;;;;;5013136;28;20088;-65
2023/11/24 00:42:40;;;;;;;0.20;0.20;;;;;;;;;;5018411;28;20025;-64
2023/11/24 00:45:06;;;;;;;0.30;0.30;;;;;;;;;;5019761;28;20022;-65
2023/11/24 00:47:32;;;;;;;5.10;1.70;;;;;;;;;;5019507;28;20104;-64
2023/11/24 00:49:57;;;;;;;0.20;0.20;;;;;;;;;;5016956;28;20110;-63
2023/11/24 00:52:22;;;;;;;14.17;2.30;;;;;;;;;;5012750;28;20069;-63
2023/11/24 00:54:47;;;;;;;12.37;1.90;;;;;;;;;;5021473;28;20025;-64
2023/11/24 00:57:12;;;;;;;16.87;2.10;;;;;;;;;;5014361;28;20064;-63
2023/11/24 00:59:38;;;;;;;25.03;2.30;;;;;;;;;;5020394;28;20037;-65
2023/11/24 01:02:04;;;;;;;18.20;2.03;;;;;;;;;;5015017;28;20542;-64
2023/11/24 01:04:29;;;;;;;14.00;2.67;;;;;;;;;;5016257;28;20497;-65
2023/11/24 01:06:55;;;;;;;22.20;2.00;;;;;;;;;;5018102;28;20025;-64
2023/11/24 01:09:20;;;;;;;10.10;1.73;;;;;;;;;;5017645;28;20385;-64
2023/11/24 01:11:45;;;;;;;19.00;2.10;;;;;;;;;;5013630;28;20329;-64
2023/11/24 01:14:10;;;;;;;15.53;2.30;;;;;;;;;;5014297;28;20406;-64
2023/11/24 01:16:35;;;;;;;21.07;2.80;;;;;;;;;;5016794;28;20574;-65
2023/11/24 01:19:01;;;;;;;19.00;2.40;;;;;;;;;;5018125;28;20026;-66
2023/11/24 01:21:26;;;;;;;20.43;2.63;;;;;;;;;;5018126;28;20029;-63
2023/11/24 01:23:51;;;;;;;18.00;1.80;;;;;;;;;;5015655;28;20080;-65
2023/11/24 01:26:16;;;;;;;16.03;1.87;;;;;;;;;;5016515;28;20036;-63
2023/11/24 01:28:42;;;;;;;17.53;2.30;;;;;;;;;;5012904;28;20061;-62
2023/11/24 01:31:08;;;;;;;23.80;3.03;;;;;;;;;;5021395;28;20034;-63
2023/11/24 01:33:33;;;;;;;22.33;3.07;;;;;;;;;;5018110;28;20021;-61
2023/11/24 01:36:00;;;;;;;27.97;2.50;;;;;;;;;;5015929;28;20029;-62
2023/11/24 01:38:25;;;;;;;16.33;2.20;;;;;;;;;;5020084;28;20381;-62
2023/11/24 01:40:51;;;;;;;16.70;3.23;;;;;;;;;;5015693;28;20033;-65
2023/11/24 01:43:16;;;;;;;17.30;3.03;;;;;;;;;;5019901;28;20100;-63
2023/11/24 01:45:42;;;;;;;22.13;2.03;;;;;;;;;;5018324;28;20503;-64
2023/11/24 01:48:08;;;;;;;20.83;2.03;;;;;;;;;;5018688;28;20517;-62
2023/11/24 01:50:33;;;;;;;17.40;2.33;;;;;;;;;;5012656;28;20017;-62
2023/11/24 01:52:59;;;;;;;18.43;2.63;;;;;;;;;;5013540;28;20500;-62
2023/11/24 01:55:26;;;;;;;25.30;2.07;;;;;;;;;;5012852;28;20033;-64
2023/11/24 01:57:52;;;;;;;21.10;3.60;;;;;;;;;;5020432;28;20068;-64
2023/11/24 02:00:18;;;;;;;23.47;2.53;;;;;;;;;;5012778;28;20475;-62
2023/11/24 02:02:44;;;;;;;22.77;3.17;;;;;;;;;;5019254;28;20075;-63
2023/11/24 02:05:09;;;;;;;15.53;2.00;;;;;;;;;;5015867;28;20477;-65
2023/11/24 02:07:34;;;;;;;18.10;2.27;;;;;;;;;;5014177;28;20129;-65
2023/11/24 02:10:00;;;;;;;16.20;2.13;;;;;;;;;;5021116;28;20025;-62
2023/11/24 02:12:25;;;;;;;19.00;2.50;;;;;;;;;;5011407;28;20021;-64
2023/11/24 02:14:50;;;;;;;20.63;3.07;;;;;;;;;;5016635;28;20087;-65
2023/11/24 02:17:15;;;;;;;19.13;3.07;;;;;;;;;;5014185;28;20021;-62
2023/11/24 02:19:41;;;;;;;24.60;2.90;;;;;;;;;;5018495;28;20040;-62
2023/11/24 02:22:06;;;;;;;16.23;2.43;;;;;;;;;;5013697;28;20121;-63
2023/11/24 02:24:31;;;;;;;16.13;2.23;;;;;;;;;;5011473;28;20034;-65
2023/11/24 02:26:59;;;;;;;18.87;3.53;;;;;;;;;;5016582;28;20035;-63
2023/11/24 02:29:24;;;;;;;16.30;2.10;;;;;;;;;;5017777;28;20489;-66
2023/11/24 02:31:49;;;;;;;23.63;3.00;;;;;;;;;;5013429;28;20030;-64
2023/11/24 02:34:14;;;;;;;13.90;2.77;;;;;;;;;;5012674;28;20022;-65
2023/11/24 02:36:42;;;;;;;14.10;2.47;;;;;;;;;;5018520;28;20084;-64
2023/11/24 02:39:08;;;;;;;18.53;2.20;;;;;;;;;;5018577;28;20029;-68
2023/11/24 02:41:34;;;;;;;18.67;2.77;;;;;;;;;;5016019;28;20036;-62
2023/11/24 02:43:59;;;;;;;16.80;2.00;;;;;;;;;;5017678;28;20370;-66
2023/11/24 02:46:24;;;;;;;11.90;2.10;;;;;;;;;;5019441;28;20102;-63
2023/11/24 02:48:50;;;;;;;13.27;2.23;;;;;;;;;;5021268;28;20477;-66
2023/11/24 02:51:15;;;;;;;15.43;2.07;;;;;;;;;;5016312;28;20041;-63
2023/11/24 02:53:42;;;;;;;14.03;2.33;;;;;;;;;;5015488;28;20021;-63
2023/11/24 02:56:07;;;;;;;22.43;2.53;;;;;;;;;;5016178;28;20490;-63
2023/11/24 02:58:33;;;;;;;18.60;2.20;;;;;;;;;;5014368;28;20089;-64
2023/11/24 03:00:59;;;;;;;18.30;2.37;;;;;;;;;;5017278;28;20025;-64
2023/11/24 03:03:26;;;;;;;19.77;1.93;;;;;;;;;;5016716;28;20022;-63
2023/11/24 03:05:51;;;;;;;16.30;2.53;;;;;;;;;;5014915;28;20091;-64
2023/11/24 03:08:17;;;;;;;15.70;2.33;;;;;;;;;;5022855;28;20401;-63
2023/11/24 03:10:43;;;;;;;15.17;2.73;;;;;;;;;;5016423;28;20496;-62
2023/11/24 03:13:09;;;;;;;18.23;2.50;;;;;;;;;;5015910;28;20084;-63
2023/11/24 03:15:34;;;;;;;15.83;1.80;;;;;;;;;;5016659;28;20409;-63
2023/11/24 03:17:59;;;;;;;17.20;2.47;;;;;;;;;;5019234;28;20033;-63
2023/11/24 03:20:25;;;;;;;15.33;2.00;;;;;;;;;;5014314;28;20033;-63
2023/11/24 03:22:50;;;;;;;16.70;1.77;;;;;;;;;;5017421;28;20052;-63
2023/11/24 03:25:16;;;;;;;13.20;2.17;;;;;;;;;;5014951;28;20022;-62
2023/11/24 03:27:41;;;;;;;16.93;2.00;;;;;;;;;;5015619;28;20037;-63
2023/11/24 03:30:06;;;;;;;11.03;1.60;;;;;;;;;;5014473;28;20029;-64
2023/11/24 03:32:33;;;;;;;12.93;1.63;;;;;;;;;;5015277;28;20029;-64
2023/11/24 03:34:58;;;;;;;13.57;1.90;;;;;;;;;;5014647;28;20116;-63
2023/11/24 03:37:23;;;;;;;19.10;2.73;;;;;;;;;;5016001;28;20031;-63
2023/11/24 03:39:48;;;;;;;13.20;1.90;;;;;;;;;;5015397;28;20106;-63
2023/11/24 03:42:13;;;;;;;20.13;2.53;;;;;;;;;;5014961;28;20477;-63
2023/11/24 03:44:39;;;;;;;12.70;1.83;;;;;;;;;;5015067;28;20469;-67
2023/11/24 03:47:04;;;;;;;10.23;1.67;;;;;;;;;;5016882;28;20215;-65
2023/11/24 03:49:29;;;;;;;8.93;1.40;;;;;;;;;;5015781;28;20462;-65
2023/11/24 03:51:55;;;;;;;11.30;1.50;;;;;;;;;;5015139;28;20084;-64
2023/11/24 03:54:21;;;;;;;12.30;1.13;;;;;;;;;;5022005;28;20638;-64
2023/11/24 03:56:47;;;;;;;10.40;1.83;;;;;;;;;;5020325;28;20024;-65
2023/11/24 03:59:12;;;;;;;10.27;1.60;;;;;;;;;;5020533;28;20481;-64
2023/11/24 04:01:37;;;;;;;15.67;1.70;;;;;;;;;;5017895;28;20040;-65
2023/11/24 04:04:03;;;;;;;12.87;1.30;;;;;;;;;;5019993;28;20112;-65
2023/11/24 04:06:28;;;;;;;11.93;1.13;;;;;;;;;;5015280;28;21009;-64
2023/11/24 04:08:53;;;;;;;8.03;1.20;;;;;;;;;;5018345;28;20071;-64
2023/11/24 04:11:18;;;;;;;18.50;1.77;;;;;;;;;;5018994;28;20027;-64
2023/11/24 04:13:44;;;;;;;20.27;1.87;;;;;;;;;;5014077;28;20038;-66
2023/11/24 04:16:09;;;;;;;8.70;1.50;;;;;;;;;;5014524;28;20021;-65
2023/11/24 04:18:34;;;;;;;11.93;1.43;;;;;;;;;;5015260;28;20029;-65
2023/11/24 04:21:00;;;;;;;8.73;1.57;;;;;;;;;;5015533;28;20026;-65
2023/11/24 04:23:25;;;;;;;10.23;0.93;;;;;;;;;;5018899;28;20057;-65
2023/11/24 04:25:50;;;;;;;12.70;0.93;;;;;;;;;;5014603;28;20038;-65
2023/11/24 04:28:16;;;;;;;7.27;0.90;;;;;;;;;;5016499;28;20120;-66
2023/11/24 04:30:41;;;;;;;10.60;1.60;;;;;;;;;;5016520;28;20024;-65
2023/11/24 04:33:06;;;;;;;10.00;1.30;;;;;;;;;;5021419;28;20378;-65
2023/11/24 04:35:32;;;;;;;12.63;1.13;;;;;;;;;;5014548;28;20030;-65
2023/11/24 04:37:58;;;;;;;11.27;1.07;;;;;;;;;;5015330;28;20030;-64
2023/11/24 04:40:23;;;;;;;7.13;1.10;;;;;;;;;;5022424;28;20485;-66
2023/11/24 04:42:48;;;;;;;7.67;1.20;;;;;;;;;;5016215;28;20247;-66
2023/11/24 04:45:14;;;;;;;9.87;1.27;;;;;;;;;;5013429;28;20030;-66
2023/11/24 04:47:39;;;;;;;8.07;1.20;;;;;;;;;;5015450;28;20088;-65
2023/11/24 04:50:06;;;;;;;8.40;1.23;;;;;;;;;;5018887;28;20542;-64
2023/11/24 04:52:31;;;;;;;6.37;1.13;;;;;;;;;;5016085;28;20504;-63
2023/11/24 04:54:56;;;;;;;7.67;1.47;;;;;;;;;;5017023;28;20029;-64
2023/11/24 04:57:22;;;;;;;7.17;1.20;;;;;;;;;;5015818;28;20033;-64
2023/11/24 04:59:47;;;;;;;7.80;1.00;;;;;;;;;;5017328;28;20402;-62
2023/11/24 05:02:12;;;;;;;6.33;1.30;;;;;;;;;;5015426;28;22266;-64
2023/11/24 05:04:37;;;;;;;6.13;0.90;;;;;;;;;;5014493;28;20190;-64
2023/11/24 05:07:03;;;;;;;5.70;0.90;;;;;;;;;;5012009;28;20116;-64
2023/11/24 05:09:28;;;;;;;3.23;0.70;;;;;;;;;;5014518;28;20077;-63
2023/11/24 05:11:54;;;;;;;5.47;1.27;;;;;;;;;;5013851;28;20044;-62
2023/11/24 05:14:19;;;;;;;11.00;1.83;;;;;;;;;;5018192;28;20060;-64
2023/11/24 05:16:44;;;;;;;7.60;1.20;;;;;;;;;;5015446;28;20053;-64
2023/11/24 05:19:10;;;;;;;8.27;0.90;;;;;;;;;;5016658;28;20035;-63
2023/11/24 05:21:37;;;;;;;10.27;0.87;;;;;;;;;;5010977;28;20045;-64
2023/11/24 05:24:02;;;;;;;5.63;0.77;;;;;;;;;;5017232;28;20018;-63
2023/11/24 05:26:28;;;;;;;8.67;1.20;;;;;;;;;;5021256;28;20064;-62
2023/11/24 05:28:53;;;;;;;8.47;1.23;;;;;;;;;;5017209;28;20393;-62
2023/11/24 05:31:18;;;;;;;6.57;1.13;;;;;;;;;;5019006;28;20504;-64
2023/11/24 05:33:43;;;;;;;7.73;1.30;;;;;;;;;;5008316;28;20528;-63
2023/11/24 05:36:11;;;;;;;13.80;1.60;;;;;;;;;;5015099;28;20498;-64
2023/11/24 05:38:37;;;;;;;10.03;1.33;;;;;;;;;;5014448;28;20474;-64
2023/11/24 05:41:03;;;;;;;8.53;1.60;;;;;;;;;;5016031;28;20071;-64
2023/11/24 05:43:29;;;;;;;8.73;1.30;;;;;;;;;;5014786;28;20545;-64
2023/11/24 05:45:54;;;;;;;10.80;1.20;;;;;;;;;;5017582;28;20116;-64
2023/11/24 05:48:19;;;;;;;11.77;1.50;;;;;;;;;;5012657;28;20053;-64
2023/11/24 05:50:44;;;;;;;12.30;1.40;;;;;;;;;;5016680;28;20529;-64
2023/11/24 05:53:10;;;;;;;7.17;0.80;;;;;;;;;;5016653;28;20613;-65
2023/11/24 05:55:35;;;;;;;12.70;1.27;;;;;;;;;;5016413;28;20602;-65
2023/11/24 05:58:05;;;;;;;13.67;1.47;;;;;;;;;;5011668;28;20041;-65
2023/11/24 06:00:30;;;;;;;12.00;2.00;;;;;;;;;;5014748;28;20474;-65
2023/11/24 06:02:56;;;;;;;14.03;1.97;;;;;;;;;;5012829;28;20048;-65
2023/11/24 06:05:21;;;;;;;8.57;1.00;;;;;;;;;;5017796;28;20064;-66
2023/11/24 06:07:46;;;;;;;9.07;0.93;;;;;;;;;;5012887;28;21071;-64
2023/11/24 06:10:12;;;;;;;7.03;1.20;;;;;;;;;;5013380;28;20827;-65
2023/11/24 06:12:37;;;;;;;6.37;0.90;;;;;;;;;;5016449;28;20033;-65
2023/11/24 06:15:03;;;;;;;11.07;1.20;;;;;;;;;;5015458;28;20037;-65
2023/11/24 06:17:28;;;;;;;9.87;1.10;;;;;;;;;;5016466;28;20041;-64
2023/11/24 06:19:53;;;;;;;4.27;1.37;;;;;;;;;;5018766;28;20359;-64
2023/11/24 06:22:19;;;;;;;8.37;1.53;;;;;;;;;;5022151;28;20463;-65
2023/11/24 06:24:44;;;;;;;11.10;1.40;;;;;;;;;;5015140;28;20442;-64
2023/11/24 06:27:09;;;;;;;7.20;1.10;;;;;;;;;;5017672;28;20431;-64
2023/11/24 06:29:34;;;;;;;6.93;1.07;;;;;;;;;;5016976;28;20469;-65
2023/11/24 06:32:00;;;;;;;6.80;0.87;;;;;;;;;;5017130;28;20520;-65
2023/11/24 06:34:25;;;;;;;8.33;1.20;;;;;;;;;;5019351;28;20037;-65
2023/11/24 06:36:50;;;;;;;4.13;1.00;;;;;;;;;;5016567;28;20378;-65
2023/11/24 06:39:19;;;;;;;9.93;1.20;;;;;;;;;;5021719;28;20060;-65
2023/11/24 06:41:45;;;;;;;8.37;1.33;;;;;;;;;;5016240;28;20054;-66
2023/11/24 06:44:11;;;;;;;6.03;1.03;;;;;;;;;;5015994;28;20468;-64
2023/11/24 06:46:36;;;;;;;13.40;2.03;;;;;;;;;;5017618;28;20544;-64
2023/11/24 06:49:01;;;;;;;7.50;1.20;;;;;;;;;;5016314;28;20025;-65
2023/11/24 06:51:27;;;;;;;11.87;1.70;;;;;;;;;;5016442;28;20025;-64
2023/11/24 06:53:52;;;;;;;8.23;1.20;;;;;;;;;;5013765;28;20014;-65
2023/11/24 06:56:17;;;;;;;3.83;0.90;;;;;;;;;;5016528;28;20037;-66
2023/11/24 06:58:43;;;;;;;8.13;1.33;;;;;;;;;;5020435;28;20030;-66
2023/11/24 07:01:08;;;;;;;6.37;1.00;;;;;;;;;;5015753;28;20025;-66
2023/11/24 07:03:36;;;;;;;4.70;1.27;;;;;;;;;;5016703;28;20218;-61
2023/11/24 07:06:02;;;;;;;2.90;0.73;;;;;;;;;;5016352;28;20449;-61
2023/11/24 07:08:28;;;;;;;7.47;1.40;;;;;;;;;;5015218;28;20029;-65
2023/11/24 07:10:53;;;;;;;6.17;1.10;;;;;;;;;;5017222;28;20021;-63
2023/11/24 07:13:18;;;;;;;11.27;1.30;;;;;;;;;;5018323;28;20095;-65
2023/11/24 07:15:44;;;;;;;6.53;1.50;;;;;;;;;;5017006;28;20655;-64
2023/11/24 07:18:09;;;;;;;9.00;1.00;;;;;;;;;;5016531;28;20362;-65
2023/11/24 07:20:34;;;;;;;2.90;1.10;;;;;;;;;;5014286;28;20029;-63
2023/11/24 07:22:59;;;;;;;5.57;1.20;;;;;;;;;;5015622;28;20049;-60
2023/11/24 07:25:26;;;;;;;6.67;1.40;;;;;;;;;;5015782;28;20045;-62
2023/11/24 07:27:51;;;;;;;9.00;1.80;;;;;;;;;;5019901;28;20029;-64
2023/11/24 07:30:18;;;;;;;8.50;1.27;;;;;;;;;;5015358;28;20029;-62
2023/11/24 07:32:43;;;;;;;6.23;1.07;;;;;;;;;;5015623;28;20424;-65
2023/11/24 07:35:10;;;;;;;6.97;1.33;;;;;;;;;;5016308;28;20022;-63
2023/11/24 07:37:35;;;;;;;5.07;1.30;;;;;;;;;;5014960;28;20075;-62
2023/11/24 07:40:06;;;;;;;7.43;1.00;;;;;;;;;;4999571;28;20029;-61
2023/11/24 07:42:31;;;;;;;5.13;1.00;;;;;;;;;;5015460;28;20590;-61
2023/11/24 07:44:57;;;;;;;6.07;1.10;;;;;;;;;;5014722;28;20025;-62
2023/11/24 07:47:23;;;;;;;10.33;1.20;;;;;;;;;;5014045;28;20118;-62
2023/11/24 07:49:48;;;;;;;10.57;1.20;;;;;;;;;;5014849;28;20116;-62
2023/11/24 07:52:13;;;;;;;5.10;1.57;;;;;;;;;;5014878;28;20025;-65
2023/11/24 07:54:42;;;;;;;7.53;1.60;;;;;;;;;;5014037;28;20030;-64
2023/11/24 07:57:07;;;;;;;9.13;2.00;;;;;;;;;;5014223;28;20497;-62
2023/11/24 07:59:33;;;;;;;9.80;1.87;;;;;;;;;;5016189;28;20044;-61
2023/11/24 08:01:58;;;;;;;10.97;1.70;;;;;;;;;;5014518;28;20064;-62
2023/11/24 08:04:24;;;;;;;11.57;1.50;;;;;;;;;;5015247;28;20052;-63
2023/11/24 08:06:49;;;;;;;10.60;1.40;;;;;;;;;;5018928;28;20566;-62
2023/11/24 08:09:16;;;;;;;6.40;1.37;;;;;;;;;;5018474;28;20021;-61
2023/11/24 08:11:41;;;;;;;7.33;1.70;;;;;;;;;;5019252;28;20527;-62
2023/11/24 08:14:07;;;;;;;10.27;1.80;;;;;;;;;;5016621;28;20033;-62
2023/11/24 08:16:32;;;;;;;7.10;1.50;;;;;;;;;;5017263;28;20595;-62
2023/11/24 08:18:57;;;;;;;10.77;1.70;;;;;;;;;;5019043;28;20472;-63
2023/11/24 08:21:23;;;;;;;6.87;1.60;;;;;;;;;;5015839;28;20032;-61
2023/11/24 08:23:48;;;;;;;9.47;1.60;;;;;;;;;;5014787;28;20026;-61
2023/11/24 08:26:17;;;;;;;10.50;1.30;;;;;;;;;;5019510;28;20481;-62
2023/11/24 08:28:44;;;;;;;5.63;1.30;;;;;;;;;;5015505;28;20398;-61
2023/11/24 08:31:13;;;;;;;6.60;0.80;;;;;;;;;;5018250;28;20037;-63
2023/11/24 08:33:39;;;;;;;4.83;1.10;;;;;;;;;;5014352;28;20028;-61
2023/11/24 08:36:04;;;;;;;8.77;1.20;;;;;;;;;;5018302;28;20017;-64
2023/11/24 08:38:29;;;;;;;12.70;1.90;;;;;;;;;;5013902;28;20029;-63
2023/11/24 08:40:55;;;;;;;11.97;1.40;;;;;;;;;;5018079;28;20429;-63
2023/11/24 08:43:22;;;;;;;7.73;1.20;;;;;;;;;;5016017;28;20014;-63
2023/11/24 08:45:48;;;;;;;4.77;0.90;;;;;;;;;;5015077;28;20277;-63
2023/11/24 08:48:13;;;;;;;10.10;1.13;;;;;;;;;;5015443;28;20214;-64
2023/11/24 08:50:38;;;;;;;9.83;1.43;;;;;;;;;;5011083;28;20473;-64
2023/11/24 08:53:05;;;;;;;7.10;1.60;;;;;;;;;;5015437;28;20096;-62
2023/11/24 08:55:30;;;;;;;7.63;1.10;;;;;;;;;;5011305;28;20518;-61
2023/11/24 08:57:59;;;;;;;8.67;1.43;;;;;;;;;;5019643;28;20096;-63
2023/11/24 09:00:27;;;;;;;6.23;0.93;;;;;;;;;;5010777;28;20057;-63
2023/11/24 09:02:52;;;;;;;8.30;1.17;;;;;;;;;;5010152;28;20128;-63
2023/11/24 09:05:18;;;;;;;7.87;1.20;;;;;;;;;;5017807;28;20398;-62
2023/11/24 09:07:44;;;;;;;11.80;1.60;;;;;;;;;;5015402;28;20022;-63
2023/11/24 09:10:09;;;;;;;10.47;1.37;;;;;;;;;;5016569;28;20673;-63
2023/11/24 09:12:35;;;;;;;11.27;1.43;;;;;;;;;;5011179;28;20021;-62
2023/11/24 09:15:04;;;;;;;5.03;1.13;;;;;;;;;;5018947;28;20060;-63
2023/11/24 09:17:30;;;;;;;8.80;1.90;;;;;;;;;;5016116;28;20075;-62
2023/11/24 09:19:55;;;;;;;6.57;1.47;;;;;;;;;;5017976;28;20025;-63
2023/11/24 09:22:20;;;;;;;7.47;1.10;;;;;;;;;;5014735;28;20049;-63
2023/11/24 09:24:46;;;;;;;8.63;1.50;;;;;;;;;;5014131;28;20026;-63
2023/11/24 09:27:12;;;;;;;6.60;1.10;;;;;;;;;;5017141;28;20164;-63
2023/11/24 09:29:37;;;;;;;9.53;1.20;;;;;;;;;;5015576;28;20076;-62
2023/11/24 09:32:02;;;;;;;9.03;1.53;;;;;;;;;;5015799;28;20032;-63
2023/11/24 09:34:31;;;;;;;2.43;0.60;;;;;;;;;;5019905;28;20120;-62
2023/11/24 09:36:56;;;;;;;5.40;0.93;;;;;;;;;;5014032;28;20021;-63
2023/11/24 09:39:26;;;;;;;4.33;0.90;;;;;;;;;;5016083;28;20029;-63
2023/11/24 09:41:52;;;;;;;6.07;0.70;;;;;;;;;;5012373;28;20018;-63
2023/11/24 09:44:18;;;;;;;4.13;0.70;;;;;;;;;;5014168;28;20029;-63
2023/11/24 09:46:44;;;;;;;9.80;1.00;;;;;;;;;;5019197;28;20095;-63
2023/11/24 09:49:09;;;;;;;5.67;0.90;;;;;;;;;;5013649;28;20009;-64
2023/11/24 09:51:37;;;;;;;5.20;0.90;;;;;;;;;;5022737;28;20014;-63
2023/11/24 09:54:03;;;;;;;4.43;1.00;;;;;;;;;;5016802;28;20017;-63
2023/11/24 09:56:28;;;;;;;8.20;1.33;;;;;;;;;;5020637;28;20108;-65
2023/11/24 09:58:53;;;;;;;7.20;1.23;;;;;;;;;;5015151;28;20533;-63
2023/11/24 10:01:21;;;;;;;7.47;1.50;;;;;;;;;;5018847;28;20021;-63
2023/11/24 10:03:49;;;;;;;7.63;1.60;;;;;;;;;;5018225;28;20022;-63
2023/11/24 10:06:14;;;;;;;8.50;1.40;;;;;;;;;;5021353;28;20022;-63
2023/11/24 10:08:40;;;;;;;8.73;1.70;;;;;;;;;;5019674;28;20535;-63
2023/11/24 10:11:11;;;;;;;7.83;1.63;;;;;;;;;;5011931;28;20014;-62
2023/11/24 10:13:37;;;;;;;10.57;1.63;;;;;;;;;;5020543;28;20470;-62
2023/11/24 10:16:02;;;;;;;10.47;1.70;;;;;;;;;;5017998;28;20466;-63
2023/11/24 10:18:28;;;;;;;6.07;1.20;;;;;;;;;;5023066;28;20094;-65
2023/11/24 10:20:55;;;;;;;11.23;1.77;;;;;;;;;;5013284;28;20067;-62
2023/11/24 10:23:20;;;;;;;9.83;1.10;;;;;;;;;;5019996;28;20131;-64
2023/11/24 10:25:45;;;;;;;8.40;1.40;;;;;;;;;;5023507;28;20049;-65
2023/11/24 10:28:11;;;;;;;12.77;1.30;;;;;;;;;;5018620;28;20010;-62
2023/11/24 10:30:36;;;;;;;11.23;1.87;;;;;;;;;;5022388;28;20014;-63
2023/11/24 10:33:03;;;;;;;13.70;1.60;;;;;;;;;;5014239;28;20029;-64
2023/11/24 10:35:28;;;;;;;16.63;1.80;;;;;;;;;;5019894;28;20025;-63
2023/11/24 10:37:54;;;;;;;10.23;1.40;;;;;;;;;;5021878;28;20032;-65
2023/11/24 10:40:20;;;;;;;12.20;1.97;;;;;;;;;;5018846;28;20025;-63
2023/11/24 10:42:47;;;;;;;11.13;1.93;;;;;;;;;;5021496;28;20049;-65
2023/11/24 10:45:17;;;;;;;9.53;1.70;;;;;;;;;;5015033;28;20021;-63
2023/11/24 10:47:49;;;;;;;15.03;1.50;;;;;;;;;;5020672;28;20021;-63
2023/11/24 10:50:16;;;;;;;8.87;1.93;;;;;;;;;;5016699;28;20089;-64
2023/11/24 10:52:48;;;;;;;7.23;1.53;;;;;;;;;;5015246;28;20033;-65
2023/11/24 10:55:14;;;;;;;16.17;1.73;;;;;;;;;;5019674;28;20020;-64
2023/11/24 10:57:43;;;;;;;9.57;1.50;;;;;;;;;;5014622;28;20533;-62
2023/11/24 11:00:08;;;;;;;6.33;1.10;;;;;;;;;;5020991;28;20551;-64
2023/11/24 11:02:39;;;;;;;8.37;1.43;;;;;;;;;;5016040;28;20017;-64
2023/11/24 11:05:13;;;;;;;4.75;1.08;;;;;;;;;;5021844;28;20021;-63
2023/11/24 11:07:54;;;;;;;3.70;0.87;;;;;;;;;;5018268;28;20634;-61
2023/11/24 11:10:25;;;;;;;8.15;0.80;;;;;;;;;;5015658;28;20360;-66
2023/11/24 11:12:53;;;;;;;7.60;1.00;;;;;;;;;;5021578;28;20531;-67
2023/11/24 11:15:30;;;;;;;5.23;1.17;;;;;;;;;;5019869;28;20017;-64
2023/11/24 11:18:07;;;;;;;5.57;1.07;;;;;;;;;;5021051;28;20026;-62
2023/11/24 11:20:34;;;;;;;2.47;0.97;;;;;;;;;;5015593;28;20083;-60
2023/11/24 11:23:02;;;;;;;6.50;1.53;;;;;;;;;;5020705;28;20694;-61
2023/11/24 11:25:31;;;;;;;5.63;1.20;;;;;;;;;;5016302;28;20029;-63
2023/11/24 11:28:17;;;;;;;13.73;2.00;;;;;;;;;;5020399;28;20027;-62
2023/11/24 11:30:44;;;;;;;10.23;1.13;;;;;;;;;;5014174;28;20550;-63
2023/11/24 11:33:15;;;;;;;6.43;1.57;;;;;;;;;;5021001;28;20429;-62
2023/11/24 11:35:47;;;;;;;10.35;1.67;;;;;;;;;;5017550;28;20021;-65
2023/11/24 11:38:15;;;;;;;8.67;1.70;;;;;;;;;;5018704;28;20018;-64
2023/11/24 11:40:44;;;;;;;4.93;1.00;;;;;;;;;;5016906;28;20025;-65
2023/11/24 11:43:12;;;;;;;6.97;1.23;;;;;;;;;;5018847;28;20014;-64
2023/11/24 11:45:51;;;;;;;4.03;1.10;;;;;;;;;;5018134;28;20548;-63
2023/11/24 11:48:17;;;;;;;19.40;1.47;;;;;;;;;;5014749;28;20469;-65
2023/11/24 11:50:49;;;;;;;3.50;0.67;;;;;;;;;;5017897;28;20025;-64
2023/11/24 11:53:16;;;;;;;4.37;1.00;;;;;;;;;;5014095;28;20486;-63
2023/11/24 11:55:42;;;;;;;1.47;0.70;;;;;;;;;;5016167;28;20497;-64
2023/11/24 11:58:07;;;;;;;2.70;0.67;;;;;;;;;;5017774;28;20025;-64
2023/11/24 12:00:32;;;;;;;5.53;0.80;;;;;;;;;;5014488;28;20032;-63
2023/11/24 12:02:58;;;;;;;1.80;0.80;;;;;;;;;;5015777;28;20030;-64
2023/11/24 12:05:23;;;;;;;3.97;0.50;;;;;;;;;;5015900;28;20097;-64
2023/11/24 12:07:49;;;;;;;1.87;0.50;;;;;;;;;;5016236;28;20075;-64
2023/11/24 12:10:14;;;;;;;2.10;0.60;;;;;;;;;;5022158;28;20219;-64
2023/11/24 12:12:44;;;;;;;1.27;0.43;;;;;;;;;;5014527;28;20366;-64
2023/11/24 12:15:09;;;;;;;2.43;0.70;;;;;;;;;;5015441;28;20665;-63
2023/11/24 12:17:35;;;;;;;4.77;0.60;;;;;;;;;;5016537;28;20113;-63
2023/11/24 12:20:00;;;;;;;4.10;0.70;;;;;;;;;;5022396;28;20021;-64
2023/11/24 12:22:28;;;;;;;3.57;1.20;;;;;;;;;;5020676;28;20476;-64
2023/11/24 12:24:53;;;;;;;5.47;0.83;;;;;;;;;;5020067;28;20029;-64
2023/11/24 12:27:20;;;;;;;3.53;0.83;;;;;;;;;;5013200;28;20022;-65
2023/11/24 12:29:50;;;;;;;3.93;0.53;;;;;;;;;;5017047;28;20659;-63
2023/11/24 12:32:15;;;;;;;4.70;0.80;;;;;;;;;;5014050;28;20014;-64
2023/11/24 12:34:42;;;;;;;3.77;0.67;;;;;;;;;;5016757;28;20489;-64
2023/11/24 12:37:08;;;;;;;3.23;0.60;;;;;;;;;;5021677;28;20020;-66
2023/11/24 12:39:36;;;;;;;6.93;0.90;;;;;;;;;;5010376;28;20429;-66
2023/11/24 12:42:04;;;;;;;2.97;0.60;;;;;;;;;;5017077;28;20076;-65
2023/11/24 12:44:30;;;;;;;2.80;0.80;;;;;;;;;;5015271;28;20366;-66
2023/11/24 12:47:12;;;;;;;3.10;0.50;;;;;;;;;;5016548;28;20018;-65
2023/11/24 12:49:53;;;;;;;3.37;0.70;;;;;;;;;;5015929;28;20021;-64
2023/11/24 12:52:20;;;;;;;2.53;0.95;;;;;;;;;;5016041;28;20017;-63
2023/11/24 12:54:45;;;;;;;2.70;0.60;;;;;;;;;;5015389;28;20026;-65
2023/11/24 12:57:11;;;;;;;2.57;0.70;;;;;;;;;;5014578;28;20018;-64
2023/11/24 12:59:37;;;;;;;4.47;0.90;;;;;;;;;;5009622;28;20467;-62
2023/11/24 13:02:02;;;;;;;3.90;0.70;;;;;;;;;;5017109;28;20040;-63
2023/11/24 13:04:27;;;;;;;6.43;0.90;;;;;;;;;;5011911;28;20033;-65
2023/11/24 13:06:52;;;;;;;1.73;0.53;;;;;;;;;;5016467;28;20026;-63
2023/11/24 13:09:22;;;;;;;4.57;1.00;;;;;;;;;;5019905;28;20022;-65
2023/11/24 13:11:48;;;;;;;7.87;0.87;;;;;;;;;;5015791;28;20014;-66
2023/11/24 13:14:16;;;;;;;3.70;0.77;;;;;;;;;;5015041;28;20029;-66
2023/11/24 13:16:41;;;;;;;4.60;0.73;;;;;;;;;;5015552;28;20021;-65
2023/11/24 13:19:07;;;;;;;5.90;0.90;;;;;;;;;;5019502;28;20013;-64
2023/11/24 13:21:33;;;;;;;9.70;1.30;;;;;;;;;;5018506;28;20409;-65
2023/11/24 13:23:58;;;;;;;7.70;1.10;;;;;;;;;;5014532;28;20624;-65
2023/11/24 13:26:25;;;;;;;6.87;1.57;;;;;;;;;;5017906;28;20032;-63
2023/11/24 13:28:51;;;;;;;6.93;1.43;;;;;;;;;;5018977;28;20382;-67
2023/11/24 13:31:17;;;;;;;5.73;1.03;;;;;;;;;;5020881;28;20025;-64
2023/11/24 13:33:42;;;;;;;6.50;1.20;;;;;;;;;;5020838;28;20482;-64
2023/11/24 13:36:07;;;;;;;7.43;1.27;;;;;;;;;;5014327;28;20080;-64
2023/11/24 13:38:33;;;;;;;8.27;1.23;;;;;;;;;;5015590;28;20398;-65
2023/11/24 13:40:58;;;;;;;3.77;0.80;;;;;;;;;;5013094;28;20105;-64
2023/11/24 13:43:23;;;;;;;9.13;1.50;;;;;;;;;;5013521;28;20123;-64
2023/11/24 13:45:49;;;;;;;7.50;1.10;;;;;;;;;;5018150;28;20079;-64
2023/11/24 13:48:16;;;;;;;6.53;1.33;;;;;;;;;;5016139;28;20022;-64
2023/11/24 13:50:42;;;;;;;7.40;1.27;;;;;;;;;;5016175;28;20014;-63
2023/11/24 13:53:07;;;;;;;6.77;1.00;;;;;;;;;;5020488;28;20014;-63
2023/11/24 13:55:43;;;;;;;7.77;1.27;;;;;;;;;;5010858;28;20144;-65
2023/11/24 13:58:08;;;;;;;8.60;1.03;;;;;;;;;;5015121;28;20041;-64
2023/11/24 14:00:33;;;;;;;5.53;1.00;;;;;;;;;;5010685;28;20029;-64
2023/11/24 14:02:59;;;;;;;4.57;1.23;;;;;;;;;;5016903;28;20026;-66
2023/11/24 14:05:24;;;;;;;6.60;1.13;;;;;;;;;;5012614;28;20587;-65
2023/11/24 14:07:51;;;;;;;12.53;1.60;;;;;;;;;;5015424;28;20029;-64
2023/11/24 14:10:16;;;;;;;12.60;1.47;;;;;;;;;;5015205;28;20109;-65
2023/11/24 14:12:45;;;;;;;11.33;1.60;;;;;;;;;;5014315;28;20137;-64
2023/11/24 14:15:13;;;;;;;6.73;1.20;;;;;;;;;;5016491;28;20040;-63
2023/11/24 14:17:40;;;;;;;11.53;1.63;;;;;;;;;;5019881;28;20096;-64
2023/11/24 14:20:06;;;;;;;10.60;2.13;;;;;;;;;;5016558;28;20029;-64
2023/11/24 14:22:32;;;;;;;14.07;1.60;;;;;;;;;;5015355;28;20049;-64
2023/11/24 14:24:57;;;;;;;12.53;1.87;;;;;;;;;;5021892;28;20032;-64
2023/11/24 14:27:24;;;;;;;14.90;1.77;;;;;;;;;;5015903;28;20029;-63
2023/11/24 14:29:49;;;;;;;10.23;1.40;;;;;;;;;;5018044;28;20029;-64
2023/11/24 14:32:14;;;;;;;14.33;1.67;;;;;;;;;;5020179;28;20075;-63